sensor_id;sensor_type;location;lat;lon;timestamp;P1;durP1;ratioP1;P2;durP2;ratioP2
13185;SDS011;6658;53.080;7.428;2023-09-08T00:00:59;5.70;;;4.40;;
13185;SDS011;6658;53.080;7.428;2023-09-08T00:03:25;5.07;;;4.10;;
13185;SDS011;6658;53.080;7.428;2023-09-08T00:05:51;5.17;;;4.67;;
13185;SDS011;6658;53.080;7.428;2023-09-08T00:08:16;5.00;;;4.50;;
13185;SDS011;6658;53.080;7.428;2023-09-08T00:10:42;6.10;;;4.43;;
13185;SDS011;6658;53.080;7.428;2023-09-08T00:13:08;5.00;;;4.60;;
13185;SDS011;6658;53.080;7.428;2023-09-08T00:15:34;4.50;;;3.93;;
13185;SDS011;6658;53.080;7.428;2023-09-08T00:18:00;5.60;;;4.50;;
13185;SDS011;6658;53.080;7.428;2023-09-08T00:20:26;4.43;;;4.10;;
13185;SDS011;6658;53.080;7.428;2023-09-08T00:22:52;6.27;;;4.27;;
13185;SDS011;6658;53.080;7.428;2023-09-08T00:25:17;4.63;;;4.23;;
13185;SDS011;6658;53.080;7.428;2023-09-08T00:27:43;4.80;;;4.40;;
13185;SDS011;6658;53.080;7.428;2023-09-08T00:30:09;4.40;;;4.00;;
13185;SDS011;6658;53.080;7.428;2023-09-08T00:32:35;5.17;;;4.67;;
13185;SDS011;6658;53.080;7.428;2023-09-08T00:35:01;5.23;;;4.00;;
13185;SDS011;6658;53.080;7.428;2023-09-08T00:37:27;5.27;;;4.77;;
13185;SDS011;6658;53.080;7.428;2023-09-08T00:39:52;4.97;;;4.63;;
13185;SDS011;6658;53.080;7.428;2023-09-08T00:42:18;5.00;;;4.47;;
13185;SDS011;6658;53.080;7.428;2023-09-08T00:44:44;4.70;;;4.30;;
13185;SDS011;6658;53.080;7.428;2023-09-08T00:47:09;4.67;;;4.37;;
13185;SDS011;6658;53.080;7.428;2023-09-08T00:49:35;4.87;;;4.47;;
13185;SDS011;6658;53.080;7.428;2023-09-08T00:52:01;4.70;;;4.40;;
13185;SDS011;6658;53.080;7.428;2023-09-08T00:54:26;6.03;;;5.00;;
13185;SDS011;6658;53.080;7.428;2023-09-08T00:56:54;4.80;;;4.40;;
13185;SDS011;6658;53.080;7.428;2023-09-08T00:59:22;5.30;;;4.87;;
13185;SDS011;6658;53.080;7.428;2023-09-08T01:01:48;4.87;;;4.47;;
13185;SDS011;6658;53.080;7.428;2023-09-08T01:04:14;4.90;;;4.53;;
13185;SDS011;6658;53.080;7.428;2023-09-08T01:06:39;5.27;;;4.50;;
13185;SDS011;6658;53.080;7.428;2023-09-08T01:09:06;4.77;;;4.37;;
13185;SDS011;6658;53.080;7.428;2023-09-08T01:11:33;5.43;;;4.93;;
13185;SDS011;6658;53.080;7.428;2023-09-08T01:13:59;4.80;;;4.40;;
13185;SDS011;6658;53.080;7.428;2023-09-08T01:16:24;5.30;;;4.90;;
13185;SDS011;6658;53.080;7.428;2023-09-08T01:18:50;5.43;;;5.03;;
13185;SDS011;6658;53.080;7.428;2023-09-08T01:24:00;5.40;;;4.97;;
13185;SDS011;6658;53.080;7.428;2023-09-08T01:26:31;4.50;;;4.20;;
13185;SDS011;6658;53.080;7.428;2023-09-08T01:29:06;5.00;;;4.60;;
13185;SDS011;6658;53.080;7.428;2023-09-08T01:31:32;4.87;;;4.47;;
13185;SDS011;6658;53.080;7.428;2023-09-08T01:33:59;4.77;;;4.37;;
13185;SDS011;6658;53.080;7.428;2023-09-08T01:36:26;5.67;;;4.80;;
13185;SDS011;6658;53.080;7.428;2023-09-08T01:38:52;5.03;;;4.63;;
13185;SDS011;6658;53.080;7.428;2023-09-08T01:41:18;5.53;;;5.13;;
13185;SDS011;6658;53.080;7.428;2023-09-08T01:43:43;5.47;;;4.90;;
13185;SDS011;6658;53.080;7.428;2023-09-08T01:46:09;5.10;;;4.70;;
13185;SDS011;6658;53.080;7.428;2023-09-08T01:48:35;5.60;;;4.90;;
13185;SDS011;6658;53.080;7.428;2023-09-08T01:51:00;5.40;;;5.00;;
13185;SDS011;6658;53.080;7.428;2023-09-08T01:53:26;5.13;;;4.73;;
13185;SDS011;6658;53.080;7.428;2023-09-08T01:55:51;5.33;;;4.90;;
13185;SDS011;6658;53.080;7.428;2023-09-08T01:58:17;4.80;;;4.50;;
13185;SDS011;6658;53.080;7.428;2023-09-08T02:00:43;5.80;;;5.30;;
13185;SDS011;6658;53.080;7.428;2023-09-08T02:03:12;5.30;;;4.90;;
13185;SDS011;6658;53.080;7.428;2023-09-08T02:05:39;5.67;;;5.17;;
13185;SDS011;6658;53.080;7.428;2023-09-08T02:08:05;5.13;;;4.73;;
13185;SDS011;6658;53.080;7.428;2023-09-08T02:10:31;5.47;;;4.77;;
13185;SDS011;6658;53.080;7.428;2023-09-08T02:12:57;5.33;;;4.83;;
13185;SDS011;6658;53.080;7.428;2023-09-08T02:15:22;5.50;;;5.10;;
13185;SDS011;6658;53.080;7.428;2023-09-08T02:17:57;7.13;;;6.43;;
13185;SDS011;6658;53.080;7.428;2023-09-08T02:20:23;5.90;;;5.40;;
13185;SDS011;6658;53.080;7.428;2023-09-08T02:22:49;5.10;;;4.70;;
13185;SDS011;6658;53.080;7.428;2023-09-08T02:25:19;5.60;;;5.20;;
13185;SDS011;6658;53.080;7.428;2023-09-08T02:27:45;6.10;;;5.37;;
13185;SDS011;6658;53.080;7.428;2023-09-08T02:30:11;5.83;;;5.43;;
13185;SDS011;6658;53.080;7.428;2023-09-08T02:32:36;5.80;;;5.27;;
13185;SDS011;6658;53.080;7.428;2023-09-08T02:35:02;5.50;;;5.10;;
13185;SDS011;6658;53.080;7.428;2023-09-08T02:37:28;6.13;;;5.60;;
13185;SDS011;6658;53.080;7.428;2023-09-08T02:39:54;6.07;;;5.57;;
13185;SDS011;6658;53.080;7.428;2023-09-08T02:42:19;7.20;;;5.80;;
13185;SDS011;6658;53.080;7.428;2023-09-08T02:44:45;6.60;;;6.10;;
13185;SDS011;6658;53.080;7.428;2023-09-08T02:47:11;6.07;;;5.67;;
13185;SDS011;6658;53.080;7.428;2023-09-08T02:49:36;6.47;;;5.87;;
13185;SDS011;6658;53.080;7.428;2023-09-08T02:52:02;6.57;;;6.07;;
13185;SDS011;6658;53.080;7.428;2023-09-08T02:54:29;7.20;;;5.97;;
13185;SDS011;6658;53.080;7.428;2023-09-08T02:56:54;6.77;;;6.20;;
13185;SDS011;6658;53.080;7.428;2023-09-08T02:59:20;5.90;;;5.50;;
13185;SDS011;6658;53.080;7.428;2023-09-08T03:01:46;6.33;;;5.83;;
13185;SDS011;6658;53.080;7.428;2023-09-08T03:04:11;7.13;;;6.57;;
13185;SDS011;6658;53.080;7.428;2023-09-08T03:06:37;6.63;;;6.03;;
13185;SDS011;6658;53.080;7.428;2023-09-08T03:09:03;6.63;;;6.00;;
13185;SDS011;6658;53.080;7.428;2023-09-08T03:11:29;6.60;;;6.00;;
13185;SDS011;6658;53.080;7.428;2023-09-08T03:13:54;6.47;;;5.97;;
13185;SDS011;6658;53.080;7.428;2023-09-08T03:16:20;6.80;;;6.10;;
13185;SDS011;6658;53.080;7.428;2023-09-08T03:18:46;7.17;;;6.60;;
13185;SDS011;6658;53.080;7.428;2023-09-08T03:21:13;7.83;;;6.53;;
13185;SDS011;6658;53.080;7.428;2023-09-08T03:23:40;6.37;;;5.77;;
13185;SDS011;6658;53.080;7.428;2023-09-08T03:26:07;7.13;;;6.43;;
13185;SDS011;6658;53.080;7.428;2023-09-08T03:28:34;9.63;;;6.10;;
13185;SDS011;6658;53.080;7.428;2023-09-08T03:31:04;6.63;;;6.07;;
13185;SDS011;6658;53.080;7.428;2023-09-08T03:33:30;7.17;;;6.57;;
13185;SDS011;6658;53.080;7.428;2023-09-08T03:35:56;6.70;;;6.07;;
13185;SDS011;6658;53.080;7.428;2023-09-08T03:38:22;7.17;;;6.57;;
13185;SDS011;6658;53.080;7.428;2023-09-08T03:40:48;6.80;;;5.70;;
13185;SDS011;6658;53.080;7.428;2023-09-08T03:43:14;7.03;;;6.43;;
13185;SDS011;6658;53.080;7.428;2023-09-08T03:45:39;7.03;;;6.40;;
13185;SDS011;6658;53.080;7.428;2023-09-08T03:48:06;6.87;;;6.37;;
13185;SDS011;6658;53.080;7.428;2023-09-08T03:50:32;7.83;;;7.20;;
13185;SDS011;6658;53.080;7.428;2023-09-08T03:52:57;7.13;;;6.57;;
13185;SDS011;6658;53.080;7.428;2023-09-08T03:55:23;7.00;;;6.40;;
13185;SDS011;6658;53.080;7.428;2023-09-08T03:57:49;7.70;;;6.57;;
13185;SDS011;6658;53.080;7.428;2023-09-08T04:00:15;7.00;;;6.50;;
13185;SDS011;6658;53.080;7.428;2023-09-08T04:02:46;7.07;;;6.50;;
13185;SDS011;6658;53.080;7.428;2023-09-08T04:05:11;7.90;;;6.73;;
13185;SDS011;6658;53.080;7.428;2023-09-08T04:07:37;7.37;;;6.67;;
13185;SDS011;6658;53.080;7.428;2023-09-08T04:10:03;7.93;;;7.23;;
13185;SDS011;6658;53.080;7.428;2023-09-08T04:12:29;6.90;;;6.40;;
13185;SDS011;6658;53.080;7.428;2023-09-08T04:14:54;8.00;;;7.40;;
13185;SDS011;6658;53.080;7.428;2023-09-08T04:17:20;7.30;;;6.70;;
13185;SDS011;6658;53.080;7.428;2023-09-08T04:19:46;8.10;;;7.40;;
13185;SDS011;6658;53.080;7.428;2023-09-08T04:22:11;7.70;;;7.00;;
13185;SDS011;6658;53.080;7.428;2023-09-08T04:24:37;7.83;;;7.13;;
13185;SDS011;6658;53.080;7.428;2023-09-08T04:27:03;8.23;;;7.63;;
13185;SDS011;6658;53.080;7.428;2023-09-08T04:29:29;7.93;;;7.33;;
13185;SDS011;6658;53.080;7.428;2023-09-08T04:31:55;7.77;;;7.03;;
13185;SDS011;6658;53.080;7.428;2023-09-08T04:34:20;8.00;;;7.33;;
13185;SDS011;6658;53.080;7.428;2023-09-08T04:36:46;8.50;;;7.40;;
13185;SDS011;6658;53.080;7.428;2023-09-08T04:39:12;7.53;;;6.93;;
13185;SDS011;6658;53.080;7.428;2023-09-08T04:41:40;8.37;;;7.40;;
13185;SDS011;6658;53.080;7.428;2023-09-08T04:44:05;8.57;;;7.87;;
13185;SDS011;6658;53.080;7.428;2023-09-08T04:46:31;8.20;;;7.60;;
13185;SDS011;6658;53.080;7.428;2023-09-08T04:48:57;8.47;;;7.77;;
13185;SDS011;6658;53.080;7.428;2023-09-08T04:51:24;8.67;;;7.97;;
13185;SDS011;6658;53.080;7.428;2023-09-08T04:53:49;8.23;;;7.63;;
13185;SDS011;6658;53.080;7.428;2023-09-08T04:56:15;8.40;;;7.70;;
13185;SDS011;6658;53.080;7.428;2023-09-08T04:58:40;7.93;;;7.23;;
13185;SDS011;6658;53.080;7.428;2023-09-08T05:01:06;8.50;;;7.90;;
13185;SDS011;6658;53.080;7.428;2023-09-08T05:03:32;8.33;;;7.63;;
13185;SDS011;6658;53.080;7.428;2023-09-08T05:05:57;7.97;;;7.37;;
13185;SDS011;6658;53.080;7.428;2023-09-08T05:08:23;8.30;;;7.60;;
13185;SDS011;6658;53.080;7.428;2023-09-08T05:10:49;7.93;;;7.33;;
13185;SDS011;6658;53.080;7.428;2023-09-08T05:13:16;8.33;;;7.63;;
13185;SDS011;6658;53.080;7.428;2023-09-08T05:15:42;9.00;;;8.10;;
13185;SDS011;6658;53.080;7.428;2023-09-08T05:18:09;9.00;;;8.10;;
13185;SDS011;6658;53.080;7.428;2023-09-08T05:20:34;10.17;;;9.17;;
13185;SDS011;6658;53.080;7.428;2023-09-08T05:23:00;8.10;;;7.50;;
13185;SDS011;6658;53.080;7.428;2023-09-08T05:25:26;8.00;;;7.40;;
13185;SDS011;6658;53.080;7.428;2023-09-08T05:27:51;8.13;;;7.43;;
13185;SDS011;6658;53.080;7.428;2023-09-08T05:30:17;8.13;;;7.43;;
13185;SDS011;6658;53.080;7.428;2023-09-08T05:32:43;7.00;;;6.50;;
13185;SDS011;6658;53.080;7.428;2023-09-08T05:35:09;7.13;;;6.53;;
13185;SDS011;6658;53.080;7.428;2023-09-08T05:37:35;7.60;;;6.77;;
13185;SDS011;6658;53.080;7.428;2023-09-08T05:40:01;6.60;;;5.93;;
13185;SDS011;6658;53.080;7.428;2023-09-08T05:42:26;8.10;;;7.27;;
13185;SDS011;6658;53.080;7.428;2023-09-08T05:44:52;7.57;;;6.97;;
13185;SDS011;6658;53.080;7.428;2023-09-08T05:47:19;7.17;;;6.53;;
13185;SDS011;6658;53.080;7.428;2023-09-08T05:49:45;7.50;;;6.80;;
13185;SDS011;6658;53.080;7.428;2023-09-08T05:52:11;7.23;;;6.53;;
13185;SDS011;6658;53.080;7.428;2023-09-08T05:54:37;7.20;;;6.50;;
13185;SDS011;6658;53.080;7.428;2023-09-08T05:57:02;7.97;;;6.83;;
13185;SDS011;6658;53.080;7.428;2023-09-08T05:59:28;6.80;;;6.30;;
13185;SDS011;6658;53.080;7.428;2023-09-08T06:01:54;6.60;;;6.10;;
13185;SDS011;6658;53.080;7.428;2023-09-08T06:04:19;6.97;;;6.37;;
13185;SDS011;6658;53.080;7.428;2023-09-08T06:06:45;8.80;;;7.20;;
13185;SDS011;6658;53.080;7.428;2023-09-08T06:09:11;7.20;;;6.50;;
13185;SDS011;6658;53.080;7.428;2023-09-08T06:11:37;6.57;;;5.97;;
13185;SDS011;6658;53.080;7.428;2023-09-08T06:14:03;6.63;;;6.13;;
13185;SDS011;6658;53.080;7.428;2023-09-08T06:16:28;7.27;;;6.67;;
13185;SDS011;6658;53.080;7.428;2023-09-08T06:18:54;7.40;;;6.60;;
13185;SDS011;6658;53.080;7.428;2023-09-08T06:21:20;7.13;;;6.57;;
13185;SDS011;6658;53.080;7.428;2023-09-08T06:23:46;6.50;;;6.00;;
13185;SDS011;6658;53.080;7.428;2023-09-08T06:26:12;6.93;;;6.27;;
13185;SDS011;6658;53.080;7.428;2023-09-08T06:28:38;6.70;;;6.20;;
13185;SDS011;6658;53.080;7.428;2023-09-08T06:31:06;7.07;;;6.53;;
13185;SDS011;6658;53.080;7.428;2023-09-08T06:33:32;6.80;;;6.20;;
13185;SDS011;6658;53.080;7.428;2023-09-08T06:35:58;6.40;;;5.90;;
13185;SDS011;6658;53.080;7.428;2023-09-08T06:38:23;6.03;;;5.53;;
13185;SDS011;6658;53.080;7.428;2023-09-08T06:40:49;6.20;;;5.60;;
13185;SDS011;6658;53.080;7.428;2023-09-08T06:43:17;6.00;;;5.50;;
13185;SDS011;6658;53.080;7.428;2023-09-08T06:45:46;5.43;;;5.03;;
13185;SDS011;6658;53.080;7.428;2023-09-08T06:48:14;5.87;;;5.23;;
13185;SDS011;6658;53.080;7.428;2023-09-08T06:50:40;6.27;;;5.77;;
13185;SDS011;6658;53.080;7.428;2023-09-08T06:53:05;5.83;;;5.33;;
13185;SDS011;6658;53.080;7.428;2023-09-08T06:55:32;5.47;;;4.97;;
13185;SDS011;6658;53.080;7.428;2023-09-08T06:57:57;5.70;;;5.20;;
13185;SDS011;6658;53.080;7.428;2023-09-08T07:00:23;5.30;;;4.90;;
13185;SDS011;6658;53.080;7.428;2023-09-08T07:02:49;5.30;;;4.90;;
13185;SDS011;6658;53.080;7.428;2023-09-08T07:05:15;5.63;;;4.83;;
13185;SDS011;6658;53.080;7.428;2023-09-08T07:07:41;5.53;;;4.90;;
13185;SDS011;6658;53.080;7.428;2023-09-08T07:10:07;5.70;;;5.20;;
13185;SDS011;6658;53.080;7.428;2023-09-08T07:12:34;5.40;;;4.90;;
13185;SDS011;6658;53.080;7.428;2023-09-08T07:15:00;5.00;;;4.50;;
13185;SDS011;6658;53.080;7.428;2023-09-08T07:17:26;5.07;;;4.53;;
13185;SDS011;6658;53.080;7.428;2023-09-08T07:19:51;5.17;;;4.67;;
13185;SDS011;6658;53.080;7.428;2023-09-08T07:22:17;6.67;;;4.90;;
13185;SDS011;6658;53.080;7.428;2023-09-08T07:24:44;4.50;;;4.20;;
13185;SDS011;6658;53.080;7.428;2023-09-08T07:27:09;5.00;;;4.27;;
13185;SDS011;6658;53.080;7.428;2023-09-08T07:29:38;4.97;;;4.47;;
13185;SDS011;6658;53.080;7.428;2023-09-08T07:32:04;5.23;;;4.47;;
13185;SDS011;6658;53.080;7.428;2023-09-08T07:34:30;6.93;;;5.13;;
13185;SDS011;6658;53.080;7.428;2023-09-08T07:36:56;4.40;;;4.00;;
13185;SDS011;6658;53.080;7.428;2023-09-08T07:39:21;5.83;;;4.40;;
13185;SDS011;6658;53.080;7.428;2023-09-08T07:41:47;5.17;;;4.73;;
13185;SDS011;6658;53.080;7.428;2023-09-08T07:44:13;4.87;;;4.10;;
13185;SDS011;6658;53.080;7.428;2023-09-08T07:46:38;5.63;;;4.27;;
13185;SDS011;6658;53.080;7.428;2023-09-08T07:49:04;4.60;;;4.07;;
13185;SDS011;6658;53.080;7.428;2023-09-08T07:51:30;4.93;;;4.43;;
13185;SDS011;6658;53.080;7.428;2023-09-08T07:53:55;4.60;;;4.20;;
13185;SDS011;6658;53.080;7.428;2023-09-08T07:56:21;4.73;;;4.40;;
13185;SDS011;6658;53.080;7.428;2023-09-08T07:58:47;4.13;;;3.83;;
13185;SDS011;6658;53.080;7.428;2023-09-08T08:01:13;4.97;;;3.80;;
13185;SDS011;6658;53.080;7.428;2023-09-08T08:03:40;4.85;;;3.60;;
13185;SDS011;6658;53.080;7.428;2023-09-08T08:06:06;6.05;;;4.13;;
13185;SDS011;6658;53.080;7.428;2023-09-08T08:08:33;4.07;;;3.72;;
13185;SDS011;6658;53.080;7.428;2023-09-08T08:11:03;4.07;;;3.78;;
13185;SDS011;6658;53.080;7.428;2023-09-08T08:13:46;4.10;;;3.63;;
13185;SDS011;6658;53.080;7.428;2023-09-08T08:16:11;4.13;;;3.72;;
13185;SDS011;6658;53.080;7.428;2023-09-08T08:18:37;4.63;;;3.97;;
13185;SDS011;6658;53.080;7.428;2023-09-08T08:21:03;4.40;;;3.95;;
13185;SDS011;6658;53.080;7.428;2023-09-08T08:23:29;4.18;;;3.70;;
13185;SDS011;6658;53.080;7.428;2023-09-08T08:25:55;4.22;;;3.83;;
13185;SDS011;6658;53.080;7.428;2023-09-08T08:28:22;5.68;;;3.55;;
13185;SDS011;6658;53.080;7.428;2023-09-08T08:30:48;4.22;;;3.92;;
13185;SDS011;6658;53.080;7.428;2023-09-08T08:33:14;3.80;;;3.45;;
13185;SDS011;6658;53.080;7.428;2023-09-08T08:35:40;5.65;;;3.30;;
13185;SDS011;6658;53.080;7.428;2023-09-08T08:38:05;3.90;;;3.60;;
13185;SDS011;6658;53.080;7.428;2023-09-08T08:40:31;4.53;;;3.92;;
13185;SDS011;6658;53.080;7.428;2023-09-08T08:42:59;5.72;;;3.60;;
13185;SDS011;6658;53.080;7.428;2023-09-08T08:45:25;3.67;;;3.15;;
13185;SDS011;6658;53.080;7.428;2023-09-08T08:47:52;6.25;;;3.95;;
13185;SDS011;6658;53.080;7.428;2023-09-08T08:50:19;5.53;;;3.42;;
13185;SDS011;6658;53.080;7.428;2023-09-08T08:52:45;5.25;;;3.40;;
13185;SDS011;6658;53.080;7.428;2023-09-08T08:55:11;3.40;;;3.20;;
13185;SDS011;6658;53.080;7.428;2023-09-08T08:57:39;3.85;;;3.33;;
13185;SDS011;6658;53.080;7.428;2023-09-08T09:00:10;3.95;;;3.55;;
13185;SDS011;6658;53.080;7.428;2023-09-08T09:02:38;4.20;;;3.80;;
13185;SDS011;6658;53.080;7.428;2023-09-08T09:05:05;4.25;;;3.35;;
13185;SDS011;6658;53.080;7.428;2023-09-08T09:07:35;5.55;;;3.40;;
13185;SDS011;6658;53.080;7.428;2023-09-08T09:10:03;3.72;;;3.42;;
13185;SDS011;6658;53.080;7.428;2023-09-08T09:12:29;5.00;;;3.80;;
13185;SDS011;6658;53.080;7.428;2023-09-08T09:14:55;3.67;;;2.97;;
13185;SDS011;6658;53.080;7.428;2023-09-08T09:17:23;4.20;;;3.25;;
13185;SDS011;6658;53.080;7.428;2023-09-08T09:19:49;3.45;;;3.00;;
13185;SDS011;6658;53.080;7.428;2023-09-08T09:22:15;4.90;;;3.20;;
13185;SDS011;6658;53.080;7.428;2023-09-08T09:24:47;4.53;;;3.30;;
13185;SDS011;6658;53.080;7.428;2023-09-08T09:27:13;3.42;;;3.13;;
13185;SDS011;6658;53.080;7.428;2023-09-08T09:29:46;3.72;;;3.42;;
13185;SDS011;6658;53.080;7.428;2023-09-08T09:32:13;3.85;;;3.53;;
13185;SDS011;6658;53.080;7.428;2023-09-08T09:34:49;3.40;;;3.10;;
13185;SDS011;6658;53.080;7.428;2023-09-08T09:37:19;4.32;;;3.35;;
13185;SDS011;6658;53.080;7.428;2023-09-08T09:39:52;3.70;;;2.92;;
13185;SDS011;6658;53.080;7.428;2023-09-08T09:42:19;3.88;;;2.92;;
13185;SDS011;6658;53.080;7.428;2023-09-08T09:44:49;5.22;;;3.28;;
13185;SDS011;6658;53.080;7.428;2023-09-08T09:47:16;4.68;;;3.20;;
13185;SDS011;6658;53.080;7.428;2023-09-08T09:49:43;3.67;;;3.38;;
13185;SDS011;6658;53.080;7.428;2023-09-08T09:52:20;4.28;;;3.10;;
13185;SDS011;6658;53.080;7.428;2023-09-08T09:54:56;5.15;;;3.13;;
13185;SDS011;6658;53.080;7.428;2023-09-08T09:57:23;3.30;;;3.10;;
13185;SDS011;6658;53.080;7.428;2023-09-08T09:59:49;3.92;;;2.88;;
13185;SDS011;6658;53.080;7.428;2023-09-08T10:02:18;3.42;;;3.13;;
13185;SDS011;6658;53.080;7.428;2023-09-08T10:04:45;4.00;;;3.10;;
13185;SDS011;6658;53.080;7.428;2023-09-08T10:07:14;6.93;;;3.42;;
13185;SDS011;6658;53.080;7.428;2023-09-08T10:09:41;3.88;;;2.95;;
13185;SDS011;6658;53.080;7.428;2023-09-08T10:12:08;3.03;;;2.78;;
13185;SDS011;6658;53.080;7.428;2023-09-08T10:14:37;6.90;;;3.58;;
13185;SDS011;6658;53.080;7.428;2023-09-08T10:17:08;3.63;;;3.30;;
13185;SDS011;6658;53.080;7.428;2023-09-08T10:19:41;3.17;;;2.90;;
13185;SDS011;6658;53.080;7.428;2023-09-08T10:22:11;3.83;;;3.22;;
13185;SDS011;6658;53.080;7.428;2023-09-08T10:24:40;3.70;;;3.33;;
13185;SDS011;6658;53.080;7.428;2023-09-08T10:27:09;3.35;;;3.03;;
13185;SDS011;6658;53.080;7.428;2023-09-08T10:29:36;3.58;;;2.75;;
13185;SDS011;6658;53.080;7.428;2023-09-08T10:32:03;5.45;;;3.15;;
13185;SDS011;6658;53.080;7.428;2023-09-08T10:34:30;4.15;;;3.25;;
13185;SDS011;6658;53.080;7.428;2023-09-08T10:36:57;3.30;;;3.00;;
13185;SDS011;6658;53.080;7.428;2023-09-08T10:39:33;4.55;;;3.05;;
13185;SDS011;6658;53.080;7.428;2023-09-08T10:44:55;3.55;;;3.25;;
13185;SDS011;6658;53.080;7.428;2023-09-08T10:47:30;4.95;;;2.70;;
13185;SDS011;6658;53.080;7.428;2023-09-08T10:49:59;2.72;;;2.53;;
13185;SDS011;6658;53.080;7.428;2023-09-08T10:52:25;3.67;;;2.97;;
13185;SDS011;6658;53.080;7.428;2023-09-08T10:54:52;3.13;;;2.83;;
13185;SDS011;6658;53.080;7.428;2023-09-08T10:57:25;3.15;;;2.80;;
13185;SDS011;6658;53.080;7.428;2023-09-08T10:59:53;4.95;;;3.33;;
13185;SDS011;6658;53.080;7.428;2023-09-08T11:05:07;3.13;;;2.92;;
13185;SDS011;6658;53.080;7.428;2023-09-08T11:07:37;3.83;;;3.03;;
13185;SDS011;6658;53.080;7.428;2023-09-08T11:10:04;3.80;;;3.40;;
13185;SDS011;6658;53.080;7.428;2023-09-08T11:12:31;3.58;;;3.28;;
13185;SDS011;6658;53.080;7.428;2023-09-08T11:14:57;3.40;;;3.10;;
13185;SDS011;6658;53.080;7.428;2023-09-08T11:17:29;3.13;;;2.83;;
13185;SDS011;6658;53.080;7.428;2023-09-08T11:19:56;3.03;;;2.83;;
13185;SDS011;6658;53.080;7.428;2023-09-08T11:22:22;5.35;;;3.30;;
13185;SDS011;6658;53.080;7.428;2023-09-08T11:24:49;3.60;;;3.30;;
13185;SDS011;6658;53.080;7.428;2023-09-08T11:27:17;5.60;;;3.42;;
13185;SDS011;6658;53.080;7.428;2023-09-08T11:29:43;4.22;;;3.63;;
13185;SDS011;6658;53.080;7.428;2023-09-08T11:32:10;4.30;;;3.88;;
13185;SDS011;6658;53.080;7.428;2023-09-08T11:34:36;4.43;;;3.15;;
13185;SDS011;6658;53.080;7.428;2023-09-08T11:37:07;4.13;;;3.40;;
13185;SDS011;6658;53.080;7.428;2023-09-08T11:39:41;3.50;;;3.20;;
13185;SDS011;6658;53.080;7.428;2023-09-08T11:42:08;3.60;;;3.22;;
13185;SDS011;6658;53.080;7.428;2023-09-08T11:44:37;3.45;;;3.15;;
13185;SDS011;6658;53.080;7.428;2023-09-08T11:47:04;3.75;;;3.17;;
13185;SDS011;6658;53.080;7.428;2023-09-08T11:49:35;4.80;;;3.20;;
13185;SDS011;6658;53.080;7.428;2023-09-08T11:52:02;3.03;;;2.83;;
13185;SDS011;6658;53.080;7.428;2023-09-08T11:54:29;5.80;;;3.13;;
13185;SDS011;6658;53.080;7.428;2023-09-08T11:57:02;3.42;;;3.10;;
13185;SDS011;6658;53.080;7.428;2023-09-08T11:59:31;3.78;;;3.00;;
13185;SDS011;6658;53.080;7.428;2023-09-08T12:01:58;4.00;;;3.60;;
13185;SDS011;6658;53.080;7.428;2023-09-08T12:04:24;3.60;;;3.30;;
13185;SDS011;6658;53.080;7.428;2023-09-08T12:06:53;8.25;;;3.00;;
13185;SDS011;6658;53.080;7.428;2023-09-08T12:09:22;3.35;;;3.05;;
13185;SDS011;6658;53.080;7.428;2023-09-08T12:11:49;5.05;;;3.10;;
13185;SDS011;6658;53.080;7.428;2023-09-08T12:14:15;3.00;;;2.80;;
13185;SDS011;6658;53.080;7.428;2023-09-08T12:16:41;3.17;;;2.88;;
13185;SDS011;6658;53.080;7.428;2023-09-08T12:19:07;4.25;;;3.45;;
13185;SDS011;6658;53.080;7.428;2023-09-08T12:21:56;3.28;;;2.70;;
13185;SDS011;6658;53.080;7.428;2023-09-08T12:27:14;3.70;;;3.00;;
13185;SDS011;6658;53.080;7.428;2023-09-08T12:29:51;3.95;;;3.10;;
13185;SDS011;6658;53.080;7.428;2023-09-08T12:32:19;3.35;;;3.05;;
13185;SDS011;6658;53.080;7.428;2023-09-08T12:34:47;4.00;;;3.20;;
13185;SDS011;6658;53.080;7.428;2023-09-08T12:37:13;4.07;;;3.08;;
13185;SDS011;6658;53.080;7.428;2023-09-08T12:39:39;3.88;;;2.90;;
13185;SDS011;6658;53.080;7.428;2023-09-08T12:42:04;3.42;;;3.10;;
13185;SDS011;6658;53.080;7.428;2023-09-08T12:44:30;4.80;;;2.95;;
13185;SDS011;6658;53.080;7.428;2023-09-08T12:46:56;3.35;;;2.55;;
13185;SDS011;6658;53.080;7.428;2023-09-08T12:49:21;3.00;;;2.75;;
13185;SDS011;6658;53.080;7.428;2023-09-08T12:51:47;3.47;;;3.00;;
13185;SDS011;6658;53.080;7.428;2023-09-08T12:54:13;4.95;;;3.50;;
13185;SDS011;6658;53.080;7.428;2023-09-08T12:56:38;3.85;;;3.05;;
13185;SDS011;6658;53.080;7.428;2023-09-08T12:59:04;7.88;;;3.30;;
13185;SDS011;6658;53.080;7.428;2023-09-08T13:01:30;3.03;;;2.83;;
13185;SDS011;6658;53.080;7.428;2023-09-08T13:03:56;3.50;;;2.75;;
13185;SDS011;6658;53.080;7.428;2023-09-08T13:06:21;4.00;;;3.33;;
13185;SDS011;6658;53.080;7.428;2023-09-08T13:08:47;3.42;;;2.80;;
13185;SDS011;6658;53.080;7.428;2023-09-08T13:11:12;3.15;;;2.72;;
13185;SDS011;6658;53.080;7.428;2023-09-08T13:13:38;3.38;;;2.53;;
13185;SDS011;6658;53.080;7.428;2023-09-08T13:16:04;4.25;;;2.88;;
13185;SDS011;6658;53.080;7.428;2023-09-08T13:18:30;5.30;;;3.13;;
13185;SDS011;6658;53.080;7.428;2023-09-08T13:21:00;3.30;;;2.90;;
13185;SDS011;6658;53.080;7.428;2023-09-08T13:23:26;4.90;;;3.33;;
13185;SDS011;6658;53.080;7.428;2023-09-08T13:25:51;3.20;;;2.70;;
13185;SDS011;6658;53.080;7.428;2023-09-08T13:28:17;4.60;;;3.33;;
13185;SDS011;6658;53.080;7.428;2023-09-08T13:30:43;3.22;;;2.92;;
13185;SDS011;6658;53.080;7.428;2023-09-08T13:33:09;2.83;;;2.63;;
13185;SDS011;6658;53.080;7.428;2023-09-08T13:35:34;6.32;;;3.70;;
13185;SDS011;6658;53.080;7.428;2023-09-08T13:38:00;4.22;;;3.13;;
13185;SDS011;6658;53.080;7.428;2023-09-08T13:40:28;3.55;;;3.13;;
13185;SDS011;6658;53.080;7.428;2023-09-08T13:42:53;3.95;;;2.92;;
13185;SDS011;6658;53.080;7.428;2023-09-08T13:45:19;2.90;;;2.70;;
13185;SDS011;6658;53.080;7.428;2023-09-08T13:47:45;6.70;;;4.95;;
13185;SDS011;6658;53.080;7.428;2023-09-08T13:50:10;3.83;;;2.92;;
13185;SDS011;6658;53.080;7.428;2023-09-08T13:52:36;5.65;;;3.13;;
13185;SDS011;6658;53.080;7.428;2023-09-08T13:55:05;4.25;;;3.03;;
13185;SDS011;6658;53.080;7.428;2023-09-08T13:57:31;3.42;;;3.10;;
13185;SDS011;6658;53.080;7.428;2023-09-08T13:59:56;7.25;;;3.05;;
13185;SDS011;6658;53.080;7.428;2023-09-08T14:02:22;3.38;;;3.05;;
13185;SDS011;6658;53.080;7.428;2023-09-08T14:04:48;3.95;;;3.13;;
13185;SDS011;6658;53.080;7.428;2023-09-08T14:07:14;3.00;;;2.80;;
13185;SDS011;6658;53.080;7.428;2023-09-08T14:09:39;5.05;;;3.03;;
13185;SDS011;6658;53.080;7.428;2023-09-08T14:12:05;3.20;;;2.80;;
13185;SDS011;6658;53.080;7.428;2023-09-08T14:14:31;2.80;;;2.60;;
13185;SDS011;6658;53.080;7.428;2023-09-08T14:16:57;3.03;;;2.83;;
13185;SDS011;6658;53.080;7.428;2023-09-08T14:19:22;3.40;;;3.10;;
13185;SDS011;6658;53.080;7.428;2023-09-08T14:21:48;3.47;;;2.97;;
13185;SDS011;6658;53.080;7.428;2023-09-08T14:24:14;3.67;;;2.92;;
13185;SDS011;6658;53.080;7.428;2023-09-08T14:26:39;6.50;;;2.70;;
13185;SDS011;6658;53.080;7.428;2023-09-08T14:29:05;3.10;;;2.80;;
13185;SDS011;6658;53.080;7.428;2023-09-08T14:31:31;3.25;;;2.95;;
13185;SDS011;6658;53.080;7.428;2023-09-08T14:33:57;3.70;;;3.10;;
13185;SDS011;6658;53.080;7.428;2023-09-08T14:36:23;4.63;;;2.92;;
13185;SDS011;6658;53.080;7.428;2023-09-08T14:38:49;5.60;;;2.72;;
13185;SDS011;6658;53.080;7.428;2023-09-08T14:41:15;3.22;;;2.60;;
13185;SDS011;6658;53.080;7.428;2023-09-08T14:43:41;3.45;;;2.58;;
13185;SDS011;6658;53.080;7.428;2023-09-08T14:46:07;3.65;;;2.92;;
13185;SDS011;6658;53.080;7.428;2023-09-08T14:48:32;3.10;;;2.90;;
13185;SDS011;6658;53.080;7.428;2023-09-08T14:50:59;3.33;;;2.95;;
13185;SDS011;6658;53.080;7.428;2023-09-08T14:53:25;3.70;;;2.90;;
13185;SDS011;6658;53.080;7.428;2023-09-08T14:55:53;3.22;;;2.47;;
13185;SDS011;6658;53.080;7.428;2023-09-08T14:58:22;3.00;;;2.67;;
13185;SDS011;6658;53.080;7.428;2023-09-08T15:00:48;3.10;;;2.78;;
13185;SDS011;6658;53.080;7.428;2023-09-08T15:03:14;2.75;;;2.55;;
13185;SDS011;6658;53.080;7.428;2023-09-08T15:05:40;2.97;;;2.67;;
13185;SDS011;6658;53.080;7.428;2023-09-08T15:08:08;2.85;;;2.60;;